Time;durP1;ratioP1;P1;durP2;ratioP2;P2;SDS_P1;SDS_P2;PMS_P1;PMS_P2;Temp;Humidity;BMP_temperature;BMP_pressure;BME280_temperature;BME280_humidity;BME280_pressure;Samples;Min_cycle;Max_cycle;Signal;HPM_P1;HPM_P2
2022/03/25 00:00:25;;;;;;;107.40;52.98;;;;;;;0.65;52.21;101473.55;2013811;87;32949;-70
2022/03/25 00:03:28;;;;;;;123.40;56.17;;;;;;;0.61;52.46;101471.33;2011136;88;27761;-69
2022/03/25 00:06:31;;;;;;;120.87;57.10;;;;;;;0.56;52.39;101476.56;2012955;88;27731;-69
2022/03/25 00:09:33;;;;;;;116.80;57.30;;;;;;;0.52;52.51;101478.70;2029065;86;28662;-69
2022/03/25 00:12:35;;;;;;;122.42;59.27;;;;;;;0.49;52.62;101465.94;2048524;86;31085;-69
2022/03/25 00:15:37;;;;;;;116.05;57.30;;;;;;;0.45;52.67;101468.53;2031537;87;33053;-69
2022/03/25 00:18:39;;;;;;;123.33;56.05;;;;;;;0.42;52.70;101466.27;2031662;87;30099;-69
2022/03/25 00:21:40;;;;;;;114.15;57.65;;;;;;;0.38;52.89;101456.59;2047143;86;27727;-69
2022/03/25 00:24:42;;;;;;;124.58;59.05;;;;;;;0.35;52.95;101457.86;2098135;84;28726;-69
2022/03/25 00:27:44;;;;;;;141.50;62.08;;;;;;;0.30;52.97;101456.50;2074220;85;31823;-69
2022/03/25 00:30:46;;;;;;;139.55;67.12;;;;;;;0.28;53.19;101456.91;2094361;84;32938;-69
2022/03/25 00:33:51;;;;;;;142.80;64.10;;;;;;;0.24;53.19;101459.05;2061721;86;29413;-69
2022/03/25 00:36:53;;;;;;;134.93;61.90;;;;;;;0.20;53.23;101462.51;2039130;87;27665;-69
2022/03/25 00:39:54;;;;;;;117.47;56.88;;;;;;;0.16;53.40;101460.73;2063473;86;28632;-69
2022/03/25 00:42:56;;;;;;;131.75;59.63;;;;;;;0.13;53.45;101462.45;2091651;84;31186;-69
2022/03/25 00:45:58;;;;;;;139.28;64.95;;;;;;;0.11;53.49;101461.96;2053595;85;33062;-69
2022/03/25 00:49:00;;;;;;;138.97;64.27;;;;;;;0.06;53.75;101455.33;2063406;86;29940;-70
2022/03/25 00:52:03;;;;;;;151.37;67.62;;;;;;;0.03;53.87;101452.65;2081104;84;27751;-69
2022/03/25 00:55:06;;;;;;;148.78;63.42;;;;;;;0.02;54.01;101450.01;2091109;84;29480;-69
2022/03/25 00:58:08;;;;;;;138.55;61.70;;;;;;;-0.02;53.96;101446.02;2071907;85;30496;-69
2022/03/25 01:01:10;;;;;;;146.77;68.25;;;;;;;-0.03;53.91;101444.69;2046066;85;33290;-69
2022/03/25 01:04:12;;;;;;;139.70;65.78;;;;;;;-0.06;54.04;101446.83;2097789;84;29464;-69
2022/03/25 01:07:14;;;;;;;147.55;68.35;;;;;;;-0.08;54.25;101439.78;2074196;85;27725;-69
2022/03/25 01:10:15;;;;;;;141.25;64.37;;;;;;;-0.11;54.22;101438.42;2097902;84;29533;-69
2022/03/25 01:13:17;;;;;;;138.65;63.23;;;;;;;-0.14;54.31;101439.28;2027400;85;31020;-70
2022/03/25 01:16:19;;;;;;;146.77;68.78;;;;;;;-0.16;54.34;101444.50;2050642;86;33014;-70
2022/03/25 01:19:20;;;;;;;143.62;66.45;;;;;;;-0.18;54.58;101441.41;2048534;86;30043;-70
2022/03/25 01:22:23;;;;;;;144.95;66.17;;;;;;;-0.20;54.57;101444.03;2070454;85;27755;-69
2022/03/25 01:25:25;;;;;;;147.90;69.00;;;;;;;-0.21;54.69;101438.73;2085177;85;28644;-71
2022/03/25 01:28:32;;;;;;;155.37;70.22;;;;;;;-0.24;54.92;101437.36;2084843;85;31914;-69
2022/03/25 01:31:32;;;;;;;159.97;71.33;;;;;;;-0.27;54.89;101434.72;2074694;85;32964;-69
2022/03/25 01:34:34;;;;;;;159.50;69.97;;;;;;;-0.29;55.04;101437.76;2011199;88;30285;-69
2022/03/25 01:37:38;;;;;;;161.65;74.85;;;;;;;-0.33;55.14;101436.84;2050975;86;27731;-68
2022/03/25 01:40:39;;;;;;;162.22;69.35;;;;;;;-0.36;55.29;101435.03;2011228;87;28725;-68
2022/03/25 01:43:47;;;;;;;155.43;70.90;;;;;;;-0.38;55.25;101431.94;2084144;85;31187;-69
2022/03/25 01:46:48;;;;;;;162.05;71.67;;;;;;;-0.40;55.32;101428.39;2084152;85;33130;-69
2022/03/25 01:49:50;;;;;;;152.30;69.97;;;;;;;-0.42;55.45;101424.44;2085110;85;29322;-70
2022/03/25 01:52:53;;;;;;;152.50;73.55;;;;;;;-0.44;55.52;101428.79;2058771;85;27606;-71
2022/03/25 01:56:00;;;;;;;160.88;73.40;;;;;;;-0.47;55.57;101424.79;2048479;86;28755;-70
2022/03/25 01:59:03;;;;;;;167.10;76.07;;;;;;;-0.50;55.55;101426.96;2048012;86;31831;-71
2022/03/25 02:02:07;;;;;;;163.35;74.20;;;;;;;-0.51;55.70;101429.55;2065866;85;33709;-69
2022/03/25 02:05:10;;;;;;;155.43;72.78;;;;;;;-0.54;55.74;101433.03;2078171;85;29384;-69
2022/03/25 02:08:12;;;;;;;168.52;75.60;;;;;;;-0.54;55.81;101435.67;2065794;85;27721;-71
2022/03/25 02:11:14;;;;;;;165.37;74.82;;;;;;;-0.55;55.92;101435.62;2055909;86;28825;-71
2022/03/25 02:14:16;;;;;;;170.60;77.12;;;;;;;-0.57;55.97;101436.03;2023294;87;31029;-70
2022/03/25 02:17:18;;;;;;;171.87;76.10;;;;;;;-0.58;56.20;101432.53;2009367;87;33903;-70
2022/03/25 02:20:20;;;;;;;164.30;76.37;;;;;;;-0.59;56.38;101439.97;2061939;84;28836;-69
2022/03/25 02:23:22;;;;;;;174.85;76.12;;;;;;;-0.59;56.45;101441.28;2030676;87;27779;-70
2022/03/25 02:26:24;;;;;;;162.62;77.00;;;;;;;-0.60;56.45;101441.27;2059038;86;28653;-71
2022/03/25 02:29:26;;;;;;;179.85;80.45;;;;;;;-0.62;56.47;101443.86;2043133;87;31050;-71
2022/03/25 02:32:27;;;;;;;164.03;76.00;;;;;;;-0.63;56.53;101444.72;2039766;87;32944;-71
2022/03/25 02:35:49;;;;;;;189.93;81.80;;;;;;;-0.65;56.54;101447.76;2045941;86;29492;-71
2022/03/25 02:38:51;;;;;;;174.55;79.62;;;;;;;-0.68;56.64;101445.98;2032687;86;27625;-70
2022/03/25 02:41:53;;;;;;;176.75;80.07;;;;;;;-0.71;57.02;101446.38;2029900;87;28647;-71
2022/03/25 02:44:55;;;;;;;171.30;77.03;;;;;;;-0.74;57.14;101443.69;2039075;86;31709;-71
2022/03/25 02:47:56;;;;;;;171.77;77.27;;;;;;;-0.79;57.15;101448.44;2063696;86;32962;-70
2022/03/25 02:50:58;;;;;;;169.47;77.70;;;;;;;-0.82;57.12;101443.56;2063808;86;30269;-70
2022/03/25 02:54:00;;;;;;;168.07;77.35;;;;;;;-0.84;57.16;101443.97;2063388;85;27688;-70
2022/03/25 02:57:02;;;;;;;163.90;72.60;;;;;;;-0.87;57.42;101442.19;2053034;86;29688;-70
2022/03/25 03:00:08;;;;;;;158.75;74.03;;;;;;;-0.86;57.45;101443.05;2029642;87;31049;-70
2022/03/25 03:03:09;;;;;;;;;;;;;;;-0.90;57.75;101437.28;2000155;88;32964;-72
2022/03/25 03:06:11;;;;;;;159.60;75.28;;;;;;;-0.93;58.01;101433.77;2041821;86;29320;-71
2022/03/25 03:09:13;;;;;;;179.80;77.82;;;;;;;-0.95;57.98;101432.86;2063904;86;27702;-69
2022/03/25 03:12:15;;;;;;;165.35;74.30;;;;;;;-0.95;58.03;101430.64;2062634;86;28607;-69
2022/03/25 03:15:22;;;;;;;173.15;77.25;;;;;;;-0.97;58.02;101441.56;2041247;86;31918;-69
2022/03/25 03:18:24;;;;;;;171.90;79.62;;;;;;;-0.99;58.13;101442.86;2038013;86;33060;-70
2022/03/25 03:21:26;;;;;;;173.60;80.50;;;;;;;-0.99;58.21;101438.05;2030083;87;29315;-69
2022/03/25 03:24:27;;;;;;;178.40;78.83;;;;;;;-1.02;58.12;101434.92;2032248;86;27643;-69
2022/03/25 03:27:29;;;;;;;169.45;80.12;;;;;;;-1.02;58.16;101440.18;2063853;85;28809;-69
2022/03/25 03:30:32;;;;;;;160.63;73.95;;;;;;;-1.04;58.12;101435.31;2063182;85;31904;-68
2022/03/25 03:33:33;;;;;;;178.57;76.65;;;;;;;-1.05;58.11;101440.56;2048057;86;32969;-69
2022/03/25 03:36:35;;;;;;;168.52;77.15;;;;;;;-1.07;58.10;101434.84;2029126;87;29327;-70
2022/03/25 03:39:37;;;;;;;165.85;78.02;;;;;;;-1.08;58.30;101437.47;2027756;87;27698;-71
2022/03/25 03:42:39;;;;;;;163.47;73.78;;;;;;;-1.09;58.49;101433.06;2030035;86;28648;-72
2022/03/25 03:45:41;;;;;;;172.43;75.15;;;;;;;-1.11;58.42;101433.02;2046519;86;31211;-70
2022/03/25 03:48:43;;;;;;;167.37;77.55;;;;;;;-1.13;58.45;101428.61;2030254;87;33817;-70
2022/03/25 03:51:45;;;;;;;166.37;75.72;;;;;;;-1.16;58.46;101434.70;2030119;87;29348;-69
2022/03/25 03:54:47;;;;;;;156.52;74.12;;;;;;;-1.18;58.50;101435.52;2053089;86;27769;-70
2022/03/25 03:57:49;;;;;;;171.30;77.90;;;;;;;-1.20;58.68;101436.82;2062960;86;28804;-70
2022/03/25 04:00:51;;;;;;;163.68;76.12;;;;;;;-1.23;58.59;101439.39;2064355;86;31012;-70
2022/03/25 04:03:53;;;;;;;175.85;76.12;;;;;;;-1.25;58.58;101439.79;2063362;86;33823;-70
2022/03/25 04:06:55;;;;;;;168.62;76.80;;;;;;;-1.26;58.81;101438.02;2032630;85;28782;-70
2022/03/25 04:09:57;;;;;;;170.20;77.15;;;;;;;-1.29;58.71;101441.90;2029921;87;27775;-72
2022/03/25 04:12:59;;;;;;;182.20;79.50;;;;;;;-1.31;58.95;101445.83;2032588;85;28657;-72
2022/03/25 04:16:00;;;;;;;175.57;79.27;;;;;;;-1.32;59.00;101449.31;2063707;85;31851;-66
2022/03/25 04:19:02;;;;;;;180.15;83.35;;;;;;;-1.35;58.86;101440.50;2030166;86;33085;-69
2022/03/25 04:22:04;;;;;;;177.25;80.77;;;;;;;-1.37;58.99;101447.02;2030138;87;30116;-68
2022/03/25 04:25:07;;;;;;;173.45;80.83;;;;;;;-1.39;59.01;101447.01;2055895;86;28428;-73
2022/03/25 04:28:09;;;;;;;165.73;76.20;;;;;;;-1.41;58.97;101447.41;2060804;86;28760;-69
2022/03/25 04:31:11;;;;;;;167.28;78.52;;;;;;;-1.41;59.02;101453.11;2019649;87;31018;-71
2022/03/25 04:34:12;;;;;;;165.97;77.22;;;;;;;-1.43;59.03;101451.74;2021626;86;33804;-71
2022/03/25 04:37:14;;;;;;;176.90;78.35;;;;;;;-1.46;59.13;101454.31;2029397;87;29329;-72
2022/03/25 04:40:19;;;;;;;164.95;75.35;;;;;;;-1.47;59.13;101457.80;2028623;87;27587;-71
2022/03/25 04:43:20;;;;;;;137.97;70.10;;;;;;;-1.48;59.25;101459.96;2034577;86;29666;-70
2022/03/25 04:46:25;;;;;;;180.72;79.37;;;;;;;-1.49;59.35;101456.91;2063199;86;31010;-70
2022/03/25 04:49:26;;;;;;;172.22;77.85;;;;;;;-1.49;59.48;101456.91;2048750;86;35360;-71
2022/03/25 04:52:28;;;;;;;173.10;78.70;;;;;;;-1.47;59.55;101462.18;2028432;87;29305;-69
2022/03/25 04:55:30;;;;;;;182.85;80.12;;;;;;;-1.47;59.49;101457.80;2058309;86;27713;-68
2022/03/25 04:58:32;;;;;;;177.55;80.97;;;;;;;-1.45;59.70;101460.47;2063521;86;29457;-69
2022/03/25 05:01:34;;;;;;;174.42;78.35;;;;;;;-1.43;59.77;101461.38;2047675;86;31079;-72
2022/03/25 05:04:36;;;;;;;186.50;78.62;;;;;;;-1.40;59.94;101462.32;2047287;86;33820;-72
2022/03/25 05:07:46;;;;;;;178.25;77.92;;;;;;;-1.35;59.87;101458.90;2063915;85;29325;-72
2022/03/25 05:10:48;;;;;;;168.05;78.15;;;;;;;-1.30;59.90;101465.10;2033340;86;27671;-68
2022/03/25 05:13:50;;;;;;;160.78;71.57;;;;;;;-1.24;59.99;101467.85;2038675;86;28655;-72
2022/03/25 05:16:53;;;;;;;166.62;76.97;;;;;;;-1.16;59.95;101471.93;2089738;84;31802;-67
2022/03/25 05:19:55;;;;;;;174.60;72.92;;;;;;;-1.09;60.01;101470.75;2063418;84;33654;-74
2022/03/25 05:22:56;;;;;;;159.43;73.35;;;;;;;-1.02;60.13;101474.37;2089393;84;29412;-69
2022/03/25 05:25:58;;;;;;;155.00;75.28;;;;;;;-0.92;60.08;101472.78;2096509;84;27701;-73
2022/03/25 05:29:00;;;;;;;159.00;71.28;;;;;;;-0.82;60.03;101479.08;2098000;84;28794;-73
2022/03/25 05:32:01;;;;;;;162.10;74.15;;;;;;;-0.71;60.01;101483.20;2074082;85;31167;-73
2022/03/25 05:35:06;;;;;;;149.23;70.22;;;;;;;-0.62;60.03;101482.93;2075691;84;33180;-71
2022/03/25 05:38:08;;;;;;;160.95;74.75;;;;;;;-0.50;60.11;101482.66;2063517;86;29343;-73
2022/03/25 05:41:10;;;;;;;140.97;68.33;;;;;;;-0.38;60.14;101486.77;2062995;86;27743;-71
2022/03/25 05:44:12;;;;;;;146.90;67.82;;;;;;;-0.24;60.10;101486.08;2066325;84;28641;-73
2022/03/25 05:47:14;;;;;;;135.57;64.97;;;;;;;-0.10;60.02;101487.60;2097999;84;31652;-71
2022/03/25 05:50:16;;;;;;;130.52;62.75;;;;;;;0.05;60.09;101493.07;2073898;85;33065;-73
2022/03/25 05:53:19;;;;;;;127.47;60.78;;;;;;;0.21;60.24;101494.58;2097905;84;30161;-70
2022/03/25 05:56:21;;;;;;;121.20;58.85;;;;;;;0.36;60.26;101493.45;2051665;85;27682;-68
2022/03/25 05:59:23;;;;;;;119.35;60.60;;;;;;;0.54;60.25;101494.12;2063177;86;28809;-70
2022/03/25 06:02:28;;;;;;;127.72;64.40;;;;;;;0.73;60.26;101491.67;2063283;86;31024;-68
2022/03/25 06:05:30;;;;;;;126.75;64.77;;;;;;;0.93;60.11;101494.92;2063302;84;32963;-69
2022/03/25 06:08:32;;;;;;;119.45;64.32;;;;;;;1.14;60.22;101491.63;2006403;88;29401;-70
2022/03/25 06:11:33;;;;;;;121.90;62.43;;;;;;;1.36;60.14;101492.22;2029193;87;28249;-69
2022/03/25 06:14:35;;;;;;;133.70;64.95;;;;;;;1.60;59.98;101489.33;2057954;84;28635;-72
2022/03/25 06:17:48;;;;;;;126.20;64.15;;;;;;;1.91;59.89;101488.61;2067968;86;31895;-71
2022/03/25 06:20:50;;;;;;;123.40;66.95;;;;;;;2.30;59.62;101493.64;2032310;86;32982;-69
2022/03/25 06:23:52;;;;;;;118.33;66.42;;;;;;;2.80;59.32;101492.05;2015190;88;29387;-69
2022/03/25 06:26:54;;;;;;;124.87;66.72;;;;;;;3.26;58.89;101493.83;2042137;86;28030;-68
2022/03/25 06:29:56;;;;;;;133.15;67.60;;;;;;;3.68;58.42;101492.47;2017225;87;28625;-71
2022/03/25 06:32:58;;;;;;;131.78;69.32;;;;;;;4.10;57.88;101496.33;2016820;86;31152;-70
2022/03/25 06:36:01;;;;;;;132.55;69.20;;;;;;;4.54;57.58;101494.38;2031086;86;32977;-70
2022/03/25 06:39:03;;;;;;;135.55;67.53;;;;;;;4.98;56.97;101487.03;2047211;85;29327;-69
2022/03/25 06:42:05;;;;;;;134.55;64.92;;;;;;;5.42;56.56;101495.08;2047710;86;27781;-70
2022/03/25 06:45:10;;;;;;;130.67;69.40;;;;;;;5.89;55.97;101498.61;2038272;86;28951;-69
2022/03/25 06:48:12;;;;;;;141.47;70.52;;;;;;;6.36;55.54;101502.56;2017162;87;31031;-70
2022/03/25 06:51:14;;;;;;;134.03;70.42;;;;;;;6.85;55.14;101496.12;2015523;87;32944;-72
2022/03/25 06:54:17;;;;;;;143.35;69.42;;;;;;;7.31;54.56;101491.83;2016533;87;29494;-74
2022/03/25 06:57:19;;;;;;;127.72;68.50;;;;;;;7.73;53.94;101494.66;2032112;86;27680;-73
2022/03/25 07:00:22;;;;;;;119.47;66.62;;;;;;;8.12;53.38;101493.02;2069118;85;28663;-70
2022/03/25 07:03:25;;;;;;;118.82;65.83;;;;;;;8.50;52.81;101492.72;2069080;86;31037;-70
2022/03/25 07:06:28;;;;;;;128.85;67.27;;;;;;;8.89;52.29;101487.40;2088057;84;32972;-70
2022/03/25 07:09:30;;;;;;;115.62;63.35;;;;;;;9.27;51.88;101492.73;2065692;85;29391;-70
2022/03/25 07:12:33;;;;;;;121.55;68.65;;;;;;;9.63;51.10;101497.16;2045914;86;27812;-69
2022/03/25 07:15:34;;;;;;;114.28;64.30;;;;;;;9.98;50.63;101493.55;2012844;87;28674;-69
2022/03/25 07:18:36;;;;;;;129.15;66.00;;;;;;;10.34;50.37;101490.70;2009878;87;31750;-70
2022/03/25 07:21:39;;;;;;;120.47;65.30;;;;;;;10.73;49.65;101496.30;2010230;88;33959;-70
2022/03/25 07:24:41;;;;;;;115.97;65.80;;;;;;;11.07;49.27;101495.69;2011433;88;30218;-68
2022/03/25 07:27:44;;;;;;;111.77;60.20;;;;;;;11.38;48.46;101490.64;2042446;87;27704;-69
2022/03/25 07:30:46;;;;;;;108.85;61.68;;;;;;;11.68;47.52;101486.48;2015393;87;28499;-71
2022/03/25 07:33:48;;;;;;;108.67;60.85;;;;;;;12.02;47.39;101497.87;2010901;88;31187;-70
2022/03/25 07:36:50;;;;;;;108.85;61.63;;;;;;;12.41;46.96;101496.84;2023874;87;33071;-70
2022/03/25 07:39:51;;;;;;;103.40;58.48;;;;;;;12.74;46.13;101496.47;2011470;88;29314;-69
2022/03/25 07:42:53;;;;;;;104.75;58.83;;;;;;;13.03;45.31;101498.94;2043702;86;27720;-70
2022/03/25 07:45:55;;;;;;;107.60;59.73;;;;;;;13.31;44.92;101500.48;2046134;86;28791;-70
2022/03/25 07:48:57;;;;;;;100.47;61.35;;;;;;;13.58;44.04;101497.58;2044206;86;31028;-70
2022/03/25 07:51:59;;;;;;;99.07;58.63;;;;;;;13.85;43.73;101500.03;2044127;86;33102;-70
2022/03/25 07:55:01;;;;;;;101.05;57.95;;;;;;;14.07;42.85;101496.77;2012828;86;29481;-70
2022/03/25 07:58:02;;;;;;;92.57;55.78;;;;;;;14.32;42.34;101496.12;2042685;87;27703;-70
2022/03/25 08:01:04;;;;;;;93.97;54.13;;;;;;;14.53;41.79;101499.17;2034114;85;28629;-70
2022/03/25 08:04:09;;;;;;;90.75;55.15;;;;;;;14.76;41.54;101502.64;2011421;87;31061;-71
2022/03/25 08:07:11;;;;;;;86.72;53.17;;;;;;;15.00;41.25;101503.73;2024937;87;32959;-68
2022/03/25 08:10:12;;;;;;;96.97;53.68;;;;;;;15.29;40.69;101495.55;2044236;86;29359;-69
2022/03/25 08:13:16;;;;;;;81.63;49.20;;;;;;;15.59;40.40;101498.98;2032435;86;27818;-69
2022/03/25 08:16:18;;;;;;;73.67;45.63;;;;;;;15.87;39.41;101494.00;2042224;85;29439;-69
2022/03/25 08:19:20;;;;;;;77.53;45.28;;;;;;;16.08;39.21;101498.73;2074526;85;31088;-70
2022/03/25 08:22:22;;;;;;;73.40;42.83;;;;;;;16.32;38.60;101501.94;2074728;85;33815;-69
2022/03/25 08:28:45;;;;;;;70.95;42.70;;;;;;;16.69;37.33;101503.10;2102689;84;27591;-67
2022/03/25 08:31:47;;;;;;;63.05;39.58;;;;;;;16.89;37.76;101502.43;2048391;86;29588;-69
2022/03/25 08:34:48;;;;;;;69.27;39.83;;;;;;;17.01;36.69;101501.28;2074877;85;31004;-68
2022/03/25 08:37:50;;;;;;;67.17;38.15;;;;;;;17.08;36.61;101503.16;2085589;84;33758;-68
2022/03/25 08:40:52;;;;;;;65.95;39.27;;;;;;;17.11;35.79;101496.71;2074526;85;29321;-69
2022/03/25 08:43:54;;;;;;;67.92;39.30;;;;;;;16.97;35.30;101501.06;2074729;85;28267;-69
2022/03/25 08:46:55;;;;;;;62.60;38.53;;;;;;;16.73;35.24;101503.30;2067539;85;29448;-69
2022/03/25 08:49:57;;;;;;;61.55;38.25;;;;;;;16.60;35.33;101506.31;2088787;84;31839;-69
2022/03/25 08:52:59;;;;;;;60.80;36.30;;;;;;;16.45;35.22;101505.34;2074781;85;32943;-68
2022/03/25 08:56:01;;;;;;;46.98;31.27;;;;;;;16.32;35.26;101499.72;2056432;85;30177;-68
2022/03/25 08:59:03;;;;;;;53.25;31.55;;;;;;;16.19;34.54;101503.56;2075709;84;27687;-67
2022/03/25 09:02:05;;;;;;;55.33;34.80;;;;;;;16.05;34.63;101498.92;2068332;85;28503;-68
2022/03/25 09:05:08;;;;;;;53.50;31.85;;;;;;;16.01;34.55;101500.89;2101161;84;31019;-68
2022/03/25 09:08:10;;;;;;;58.48;31.90;;;;;;;16.01;34.34;101508.14;2108772;84;33920;-68
2022/03/25 09:11:12;;;;;;;51.68;31.17;;;;;;;15.99;34.43;101510.91;2074869;85;29325;-69
2022/03/25 09:14:14;;;;;;;52.38;28.80;;;;;;;16.02;34.42;101498.59;2047803;86;27699;-69
2022/03/25 09:17:17;;;;;;;45.83;28.40;;;;;;;16.09;34.11;101501.37;2093601;84;29719;-69
2022/03/25 09:20:19;;;;;;;41.60;26.27;;;;;;;16.16;33.82;101505.08;2104096;84;31212;-67
2022/03/25 09:23:21;;;;;;;48.48;29.20;;;;;;;16.31;33.79;101498.83;2030623;86;32963;-69
2022/03/25 09:26:25;;;;;;;44.58;27.00;;;;;;;16.33;33.48;101500.12;2008562;87;29343;-70
2022/03/25 09:29:27;;;;;;;68.10;28.30;;;;;;;16.33;33.48;101500.12;2049681;86;28137;-68
2022/03/25 09:32:29;;;;;;;48.75;30.08;;;;;;;16.33;32.93;101502.83;2004747;87;29475;-69
2022/03/25 09:35:30;;;;;;;45.38;27.20;;;;;;;16.33;32.93;101502.83;2031530;86;31032;-68
2022/03/25 09:38:32;;;;;;;42.30;27.50;;;;;;;16.35;32.95;101506.33;2037383;85;33749;-67
2022/03/25 09:41:34;;;;;;;43.90;26.50;;;;;;;16.36;32.59;101497.26;2047110;86;29325;-68
2022/03/25 09:44:41;;;;;;;48.30;27.27;;;;;;;16.38;32.66;101498.91;2061857;86;27756;-68
2022/03/25 09:47:48;;;;;;;45.65;27.95;;;;;;;16.40;32.71;101505.11;2005189;87;29505;-69
2022/03/25 09:50:58;;;;;;;44.42;26.23;;;;;;;16.40;32.71;101505.11;2029118;87;31175;-68
2022/03/25 09:54:06;;;;;;;46.40;25.75;;;;;;;16.45;32.25;101500.80;2028557;87;32974;-69
2022/03/25 09:57:12;;;;;;;42.53;25.27;;;;;;;16.55;32.16;101498.45;2029811;86;29340;-69
2022/03/25 10:00:19;;;;;;;43.92;25.32;;;;;;;16.60;32.06;101491.42;2028796;87;27707;-70
2022/03/25 10:03:40;;;;;;;41.13;23.60;;;;;;;16.67;32.05;101496.91;2030860;87;28648;-70
2022/03/25 10:06:47;;;;;;;45.38;25.55;;;;;;;16.75;31.64;101492.41;1986046;89;31144;-69
2022/03/25 10:10:02;;;;;;;44.18;26.07;;;;;;;16.76;31.26;101497.72;2009440;87;32405;-70
2022/03/25 10:13:07;;;;;;;38.65;23.95;;;;;;;16.78;31.32;101499.86;1955601;89;29395;-70
2022/03/25 10:16:30;;;;;;;41.98;24.63;;;;;;;16.79;30.70;101498.91;1976823;89;28540;-70
2022/03/25 10:19:33;;;;;;;41.88;24.67;;;;;;;16.77;31.10;101488.64;1997687;89;29686;-71
2022/03/25 10:22:37;;;;;;;36.55;20.45;;;;;;;16.80;30.77;101488.94;1996590;89;31092;-70
2022/03/25 10:25:43;;;;;;;30.95;19.75;;;;;;;16.79;30.29;101486.73;1997293;87;33043;-73
2022/03/25 10:28:47;;;;;;;33.45;17.90;;;;;;;16.81;30.26;101484.81;1997423;89;30029;-71
2022/03/25 10:32:09;;;;;;;29.45;17.80;;;;;;;16.82;29.51;101486.56;1996342;89;27911;-71
2022/03/25 10:35:12;;;;;;;32.05;17.75;;;;;;;16.80;29.46;101484.87;1995240;87;28656;-71
2022/03/25 10:38:14;;;;;;;32.63;18.23;;;;;;;16.77;29.05;101489.14;2029875;87;31101;-70
2022/03/25 10:41:22;;;;;;;33.58;18.92;;;;;;;16.76;29.62;101486.89;2017771;87;33883;-70
2022/03/25 10:44:42;;;;;;;31.17;17.87;;;;;;;16.78;29.49;101487.69;1999489;87;29499;-72
2022/03/25 10:47:44;;;;;;;28.67;17.95;;;;;;;16.83;29.31;101479.30;1997792;89;27774;-71
2022/03/25 10:50:59;;;;;;;30.75;18.15;;;;;;;16.77;29.01;101482.38;2072189;85;28704;-69
2022/03/25 10:54:07;;;;;;;31.55;18.27;;;;;;;16.74;29.00;101481.19;2069449;84;31069;-71
2022/03/25 10:57:08;;;;;;;29.32;17.95;;;;;;;16.68;28.81;101481.92;2017496;86;32982;-69
2022/03/25 11:00:13;;;;;;;34.13;18.87;;;;;;;16.65;28.73;101480.73;2060728;86;30064;-70
2022/03/25 11:03:19;;;;;;;35.40;20.92;;;;;;;16.58;27.37;101479.81;2062493;85;27759;-72
2022/03/25 11:06:21;;;;;;;38.38;21.70;;;;;;;16.47;28.33;101475.00;2063017;84;28634;-71
2022/03/25 11:09:27;;;;;;;39.83;20.95;;;;;;;16.39;28.22;101474.96;2061749;85;31079;-73
2022/03/25 11:12:30;;;;;;;31.80;19.27;;;;;;;16.37;28.77;101468.77;2013888;88;33819;-72
2022/03/25 11:15:33;;;;;;;35.73;19.48;;;;;;;16.44;28.39;101465.23;2079367;84;29347;-72
2022/03/25 11:18:38;;;;;;;34.23;20.23;;;;;;;16.45;28.17;101466.98;2106090;84;28330;-71
2022/03/25 11:21:44;;;;;;;34.73;19.05;;;;;;;16.39;28.12;101461.90;2088413;84;29393;-72
2022/03/25 11:24:54;;;;;;;33.00;20.12;;;;;;;16.28;28.10;101464.34;2037626;86;31270;-69
2022/03/25 11:28:19;;;;;;;33.90;19.70;;;;;;;16.15;27.20;101459.61;2030743;87;33916;-72
2022/03/25 11:32:08;;;;;;;35.98;20.97;;;;;;;15.99;27.71;101447.88;1997608;89;29403;-71
2022/03/25 11:35:24;;;;;;;37.05;19.75;;;;;;;15.94;27.85;101455.75;2015123;87;27568;-71
2022/03/25 11:38:31;;;;;;;39.23;19.95;;;;;;;15.88;28.05;101449.34;1991650;89;27703;-69
2022/03/25 11:41:32;;;;;;;33.60;19.35;;;;;;;15.87;28.12;101446.71;1995380;89;31021;-72
2022/03/25 11:44:34;;;;;;;34.70;19.77;;;;;;;15.85;27.92;101445.45;2029837;86;33047;-72
2022/03/25 11:47:36;;;;;;;33.90;18.40;;;;;;;15.81;27.77;101445.18;2030410;87;29335;-71
2022/03/25 11:50:44;;;;;;;36.23;18.70;;;;;;;15.80;28.20;101444.29;2029139;87;27981;-70
2022/03/25 11:53:46;;;;;;;34.65;16.87;;;;;;;15.79;27.94;101441.22;2029572;87;28739;-70
2022/03/25 11:56:49;;;;;;;30.08;18.00;;;;;;;15.80;28.31;101432.63;2051673;86;31808;-72
2022/03/25 11:59:59;;;;;;;29.27;17.17;;;;;;;15.85;28.36;101442.75;2030430;86;33792;-72
2022/03/25 12:03:07;;;;;;;34.65;19.42;;;;;;;15.91;28.66;101437.48;2028863;87;30112;-72
2022/03/25 12:06:11;;;;;;;32.93;17.48;;;;;;;16.01;28.40;101425.21;2050930;86;27696;-71
2022/03/25 12:09:18;;;;;;;27.62;17.35;;;;;;;16.07;28.16;101417.23;2063986;86;29550;-72
2022/03/25 12:12:57;;;;;;;29.82;17.37;;;;;;;16.13;28.37;101412.86;2063827;86;31134;-70
2022/03/25 12:15:59;;;;;;;35.40;17.42;;;;;;;16.16;28.47;101418.10;2042072;85;33249;-72
2022/03/25 12:19:01;;;;;;;34.18;19.10;;;;;;;16.14;27.89;101417.31;2009323;88;29365;-71
2022/03/25 12:22:23;;;;;;;35.55;19.40;;;;;;;16.13;27.95;101421.47;2010390;88;27680;-72
2022/03/25 12:25:29;;;;;;;28.85;18.65;;;;;;;16.11;28.08;101406.66;2017577;87;27635;-71
2022/03/25 12:28:31;;;;;;;45.28;21.65;;;;;;;16.10;28.00;101402.21;2040253;86;31047;-71
2022/03/25 12:31:33;;;;;;;30.40;17.82;;;;;;;16.08;28.23;101401.41;2010583;87;33195;-72
2022/03/25 12:35:00;;;;;;;38.30;19.23;;;;;;;16.10;28.33;101400.39;2009480;87;29427;-72
2022/03/25 12:38:19;;;;;;;33.83;19.05;;;;;;;16.15;28.26;101397.43;2010173;88;27731;-70
2022/03/25 12:41:28;;;;;;;29.42;17.10;;;;;;;16.15;27.95;101393.84;2022512;87;29480;-69
2022/03/25 12:44:31;;;;;;;38.53;19.02;;;;;;;16.14;27.96;101392.98;2043669;86;31073;-72
2022/03/25 12:47:36;;;;;;;33.48;17.48;;;;;;;16.18;27.88;101397.27;2043318;87;33132;-70
2022/03/25 12:50:42;;;;;;;;;;;;;;;16.01;27.98;101344.63;2046455;87;29336;-70
2022/03/25 12:53:47;;;;;;;36.55;17.82;;;;;;;16.24;27.62;101389.28;2066852;85;27756;-70
2022/03/25 12:56:59;;;;;;;33.70;17.75;;;;;;;16.20;27.65;101389.95;2054992;85;28641;-71
2022/03/25 13:00:02;;;;;;;29.25;16.37;;;;;;;16.20;27.72;101385.89;2048910;86;31023;-72
2022/03/25 13:03:05;;;;;;;32.17;17.85;;;;;;;16.21;27.71;101382.23;2050281;86;33762;-71
2022/03/25 13:06:16;;;;;;;29.92;16.80;;;;;;;16.23;27.71;101387.05;2023388;87;29400;-72
2022/03/25 13:09:18;;;;;;;30.95;18.45;;;;;;;16.23;27.87;101385.69;2071743;85;27704;-70
2022/03/25 13:12:38;;;;;;;31.73;17.48;;;;;;;16.22;27.69;101383.94;2049907;86;28638;-70
2022/03/25 13:15:45;;;;;;;30.32;17.82;;;;;;;16.22;27.53;101377.19;2057837;85;31042;-70
2022/03/25 13:18:47;;;;;;;34.88;18.30;;;;;;;16.22;27.55;101378.53;2055971;84;32968;-70
2022/03/25 13:21:49;;;;;;;32.20;20.57;;;;;;;16.20;27.70;101369.67;2061770;85;29385;-71
2022/03/25 13:24:56;;;;;;;30.77;18.90;;;;;;;16.17;27.70;101361.72;2065447;86;27685;-70
2022/03/25 13:28:00;;;;;;;32.08;18.95;;;;;;;16.17;27.70;101361.72;2052602;85;28190;-72
2022/03/25 13:31:06;;;;;;;33.20;17.25;;;;;;;16.14;27.82;101358.30;2007454;88;31103;-70
2022/03/25 13:34:07;;;;;;;28.67;17.30;;;;;;;16.11;27.52;101353.95;2052018;86;32821;-71
2022/03/25 13:37:13;;;;;;;27.45;17.02;;;;;;;16.08;27.70;101355.46;2022027;87;29382;-70
2022/03/25 13:40:34;;;;;;;29.65;17.65;;;;;;;16.06;27.26;101350.62;2051241;86;27742;-70
2022/03/25 13:43:42;;;;;;;29.50;18.15;;;;;;;15.98;27.63;101348.84;2052656;86;28810;-69
2022/03/25 13:46:43;;;;;;;35.25;19.70;;;;;;;15.98;27.63;101348.84;2070649;85;31046;-69
2022/03/25 13:49:45;;;;;;;40.67;22.65;;;;;;;15.94;27.74;101346.80;2047686;86;33115;-70
2022/03/25 13:52:58;;;;;;;36.23;21.75;;;;;;;15.96;27.67;101347.58;2052893;86;29327;-70
2022/03/25 13:56:19;;;;;;;38.48;21.48;;;;;;;15.95;27.58;101342.64;2020099;87;27711;-69